Time;durP1;ratioP1;P1;durP2;ratioP2;P2;SDS_P1;SDS_P2;PMS_P1;PMS_P2;Temp;Humidity;BMP_temperature;BMP_pressure;BME280_temperature;BME280_humidity;BME280_pressure;Samples;Min_cycle;Max_cycle;Signal;HPM_P1;HPM_P2
2021/09/05 00:01:58;;;;;;;3.90;3.60;;;30.30;42.60;;;;;;5123395;28;20491;-41
2021/09/05 00:04:31;;;;;;;3.90;3.60;;;30.40;42.30;;;;;;5122673;28;20513;-41
2021/09/05 00:07:02;;;;;;;3.40;3.17;;;30.40;42.70;;;;;;5123263;28;20447;-43
2021/09/05 00:09:33;;;;;;;3.20;3.00;;;30.40;42.60;;;;;;5122360;28;20449;-43
2021/09/05 00:12:04;;;;;;;2.57;2.37;;;30.30;44.30;;;;;;5123207;28;20460;-41
2021/09/05 00:14:35;;;;;;;3.07;2.77;;;30.30;43.20;;;;;;5122513;28;20447;-44
2021/09/05 00:17:06;;;;;;;3.20;2.60;;;30.10;44.70;;;;;;5123530;28;20493;-46
2021/09/05 00:19:39;;;;;;;2.73;2.53;;;30.10;43.50;;;;;;5123087;28;20486;-42
2021/09/05 00:22:10;;;;;;;2.70;2.50;;;30.00;43.30;;;;;;5123272;28;20486;-46
2021/09/05 00:24:41;;;;;;;3.67;2.73;;;30.00;43.90;;;;;;5140642;28;20485;-44
2021/09/05 00:27:12;;;;;;;2.90;2.70;;;30.00;45.60;;;;;;5143742;28;20478;-47
2021/09/05 00:29:43;;;;;;;2.90;2.50;;;29.90;45.70;;;;;;5143614;27;20449;-46
2021/09/05 00:32:14;;;;;;;2.70;2.50;;;29.70;46.00;;;;;;5143626;28;20570;-48
2021/09/05 00:34:47;;;;;;;3.70;2.70;;;29.60;44.50;;;;;;5143437;28;20446;-47
2021/09/05 00:37:18;;;;;;;2.40;2.20;;;29.70;44.70;;;;;;5143615;27;20446;-42
2021/09/05 00:39:49;;;;;;;2.57;2.37;;;29.70;44.30;;;;;;5142825;28;20490;-45
2021/09/05 00:42:24;;;;;;;2.63;2.10;;;29.60;44.90;;;;;;5143082;28;20484;-42
2021/09/05 00:44:56;;;;;;;3.23;2.70;;;29.50;45.30;;;;;;5143090;27;20428;-46
2021/09/05 00:47:27;;;;;;;2.60;2.40;;;29.50;44.20;;;;;;5146649;27;20453;-40
2021/09/05 00:49:59;;;;;;;2.53;2.33;;;29.30;47.30;;;;;;5147254;27;20942;-40
2021/09/05 00:52:31;;;;;;;2.80;2.60;;;29.20;48.00;;;;;;5147423;27;20933;-42
2021/09/05 00:55:02;;;;;;;2.80;2.60;;;29.00;47.70;;;;;;5146765;27;20476;-45
2021/09/05 00:57:34;;;;;;;2.70;2.50;;;28.90;45.50;;;;;;5128063;27;20454;-43
2021/09/05 01:00:07;;;;;;;2.87;2.07;;;28.90;46.90;;;;;;5126992;28;20435;-44
2021/09/05 01:02:38;;;;;;;2.60;2.40;;;29.00;45.80;;;;;;5127045;28;20452;-47
2021/09/05 01:05:12;;;;;;;3.03;2.57;;;29.00;45.70;;;;;;5126461;28;20480;-42
2021/09/05 01:07:43;;;;;;;3.83;2.47;;;29.00;46.10;;;;;;5126156;28;20445;-46
2021/09/05 01:10:15;;;;;;;2.83;2.50;;;28.90;45.90;;;;;;5126128;28;20457;-49
2021/09/05 01:12:46;;;;;;;3.00;2.80;;;28.90;45.60;;;;;;5126259;28;20505;-49
2021/09/05 01:15:17;;;;;;;2.80;2.43;;;28.80;46.20;;;;;;5126304;28;20429;-41
2021/09/05 01:17:48;;;;;;;2.77;2.47;;;28.80;46.40;;;;;;5126566;28;20499;-47
2021/09/05 01:20:20;;;;;;;2.43;2.30;;;28.90;46.40;;;;;;5126139;28;20476;-45
2021/09/05 01:22:51;;;;;;;3.70;3.10;;;28.80;47.20;;;;;;5128753;27;20521;-49
2021/09/05 01:25:22;;;;;;;5.47;4.00;;;28.70;49.00;;;;;;5146252;27;20473;-47
2021/09/05 01:27:55;;;;;;;5.03;3.80;;;28.50;48.90;;;;;;5146491;27;20442;-50
2021/09/05 01:30:27;;;;;;;2.43;2.30;;;28.40;49.50;;;;;;5146528;27;20435;-45
2021/09/05 01:32:58;;;;;;;2.70;2.50;;;28.20;49.40;;;;;;5146894;27;20432;-48
2021/09/05 01:35:29;;;;;;;2.43;2.23;;;28.30;48.30;;;;;;5146766;27;20487;-47
2021/09/05 01:38:00;;;;;;;2.73;2.53;;;28.20;50.10;;;;;;5146295;27;20836;-50
2021/09/05 01:40:31;;;;;;;2.70;2.50;;;28.00;49.30;;;;;;5146416;27;20456;-47
2021/09/05 01:43:04;;;;;;;7.70;7.20;;;27.90;50.80;;;;;;5146385;27;20856;-49
2021/09/05 01:45:34;;;;;;;6.70;6.07;;;27.90;50.10;;;;;;5146366;27;20445;-46
2021/09/05 01:48:06;;;;;;;9.60;8.90;;;27.80;51.10;;;;;;5146330;27;20445;-47
2021/09/05 01:50:37;;;;;;;8.73;8.13;;;27.70;51.00;;;;;;5146225;27;20479;-41
2021/09/05 01:53:08;;;;;;;5.60;5.20;;;27.60;50.60;;;;;;5145938;27;20452;-43
2021/09/05 01:55:39;;;;;;;3.00;2.80;;;27.60;52.60;;;;;;5143175;27;20563;-46
2021/09/05 01:58:11;;;;;;;3.30;2.87;;;27.50;51.50;;;;;;5124574;28;20454;-47
2021/09/05 02:00:42;;;;;;;2.60;2.40;;;27.50;51.30;;;;;;5125570;28;20442;-44
2021/09/05 02:03:14;;;;;;;3.03;2.70;;;27.40;51.90;;;;;;5125819;28;20445;-43
2021/09/05 02:05:45;;;;;;;2.93;2.73;;;27.30;52.10;;;;;;5125504;28;20508;-44
2021/09/05 02:08:16;;;;;;;2.80;2.60;;;27.10;52.90;;;;;;5124940;28;20460;-43
2021/09/05 02:10:47;;;;;;;3.83;2.97;;;26.90;52.80;;;;;;5125028;28;20773;-41
2021/09/05 02:13:19;;;;;;;4.70;3.30;;;26.90;53.00;;;;;;5125362;28;20449;-42
2021/09/05 02:15:50;;;;;;;3.30;3.00;;;26.70;53.80;;;;;;5125729;28;20429;-42
2021/09/05 02:18:21;;;;;;;4.40;2.93;;;26.60;54.50;;;;;;5125405;28;20539;-42
2021/09/05 02:20:52;;;;;;;2.87;2.60;;;26.50;54.80;;;;;;5125361;28;20452;-44
2021/09/05 02:23:23;;;;;;;4.37;2.87;;;26.40;55.10;;;;;;5132749;27;20442;-45
2021/09/05 02:25:54;;;;;;;2.57;2.37;;;26.30;54.40;;;;;;5145432;27;20455;-43
2021/09/05 02:28:27;;;;;;;3.00;2.77;;;26.20;54.50;;;;;;5145309;27;20519;-41
2021/09/05 02:30:59;;;;;;;3.10;2.77;;;26.10;55.20;;;;;;5145891;27;20477;-41
2021/09/05 02:33:30;;;;;;;3.20;2.90;;;26.00;54.60;;;;;;5145970;27;20429;-47
2021/09/05 02:36:01;;;;;;;3.03;2.73;;;25.90;55.50;;;;;;5145969;27;20442;-40
2021/09/05 02:38:32;;;;;;;3.20;2.90;;;25.80;55.10;;;;;;5145052;27;20498;-41
2021/09/05 02:41:03;;;;;;;2.90;2.70;;;25.60;56.00;;;;;;5145177;27;20478;-42
2021/09/05 02:43:36;;;;;;;3.43;3.13;;;25.40;57.50;;;;;;5145233;27;20416;-41
2021/09/05 02:46:07;;;;;;;4.57;3.47;;;25.20;60.40;;;;;;5145703;27;20457;-40
2021/09/05 02:48:38;;;;;;;4.63;4.17;;;25.10;60.00;;;;;;5145291;27;20450;-42
2021/09/05 02:51:09;;;;;;;4.27;3.90;;;24.90;61.30;;;;;;5145056;27;20456;-41
2021/09/05 02:53:40;;;;;;;4.00;3.60;;;24.80;60.60;;;;;;5144666;27;20465;-44
2021/09/05 02:56:11;;;;;;;5.33;4.30;;;24.60;62.60;;;;;;5137418;27;20445;-44
2021/09/05 02:58:43;;;;;;;6.63;5.20;;;24.50;62.50;;;;;;5124027;28;20782;-47
2021/09/05 03:01:14;;;;;;;6.50;5.90;;;24.50;62.30;;;;;;5124753;28;20426;-41
2021/09/05 03:03:45;;;;;;;6.23;5.73;;;24.40;62.70;;;;;;5124478;28;20446;-40
2021/09/05 03:06:17;;;;;;;8.27;7.47;;;24.40;63.20;;;;;;5124478;28;20522;-40
2021/09/05 03:08:48;;;;;;;7.50;6.80;;;24.30;64.10;;;;;;5123733;28;20457;-40
2021/09/05 03:11:19;;;;;;;7.90;7.07;;;24.30;64.80;;;;;;5123689;28;20453;-40
2021/09/05 03:13:51;;;;;;;7.93;6.23;;;24.30;65.50;;;;;;5124002;28;20471;-45
2021/09/05 03:16:24;;;;;;;5.23;4.83;;;24.40;67.00;;;;;;5124764;28;20942;-44
2021/09/05 03:18:55;;;;;;;4.90;4.50;;;24.30;67.80;;;;;;5123899;28;20497;-41
2021/09/05 03:21:26;;;;;;;4.00;3.60;;;24.20;69.80;;;;;;5124111;28;20441;-42
2021/09/05 03:23:57;;;;;;;3.53;3.27;;;24.20;71.60;;;;;;5135751;27;20456;-44
2021/09/05 03:26:28;;;;;;;3.53;3.23;;;24.30;73.20;;;;;;5144753;27;20560;-42
2021/09/05 03:29:00;;;;;;;3.73;3.43;;;24.20;74.10;;;;;;5143605;27;20448;-41
2021/09/05 03:31:32;;;;;;;4.57;3.67;;;24.20;75.10;;;;;;5144753;27;20528;-43
2021/09/05 03:34:03;;;;;;;4.30;3.90;;;24.00;76.40;;;;;;5144450;27;20452;-39
2021/09/05 03:36:34;;;;;;;2.73;2.53;;;23.90;78.10;;;;;;5144329;27;20485;-42
2021/09/05 03:39:05;;;;;;;2.73;2.53;;;23.80;79.80;;;;;;5143083;27;20897;-46
2021/09/05 03:41:36;;;;;;;2.53;2.30;;;23.80;81.80;;;;;;5144283;27;20470;-46
2021/09/05 03:44:08;;;;;;;2.43;2.27;;;23.70;83.40;;;;;;5143777;27;20429;-40
2021/09/05 03:46:39;;;;;;;2.67;2.20;;;23.70;84.70;;;;;;5144735;27;20456;-41
2021/09/05 03:49:10;;;;;;;3.80;2.07;;;23.60;85.90;;;;;;5144028;27;20452;-40
2021/09/05 03:51:41;;;;;;;2.13;1.97;;;23.50;88.00;;;;;;5144149;28;20501;-41
2021/09/05 03:54:12;;;;;;;2.00;1.50;;;23.40;90.10;;;;;;5143397;27;20468;-43
2021/09/05 03:56:43;;;;;;;1.93;1.70;;;23.30;91.00;;;;;;5132300;27;20446;-41
2021/09/05 03:59:15;;;;;;;2.20;2.00;;;23.30;91.60;;;;;;5122683;28;20480;-38
2021/09/05 04:01:47;;;;;;;2.50;2.13;;;23.20;92.40;;;;;;5123768;28;20445;-43
2021/09/05 04:04:18;;;;;;;1.90;1.80;;;23.00;93.60;;;;;;5123150;28;20442;-40
2021/09/05 04:07:00;;;;;;;2.37;1.60;;;22.90;94.70;;;;;;5123246;28;20497;-40
2021/09/05 04:12:19;;;;;;;2.47;1.80;;;22.70;96.90;;;;;;5122933;28;20449;-42
2021/09/05 04:14:51;;;;;;;2.63;1.70;;;22.70;97.80;;;;;;5123257;28;20483;-40
2021/09/05 04:17:22;;;;;;;2.83;1.60;;;22.70;98.60;;;;;;5123281;28;20429;-42
2021/09/05 04:19:53;;;;;;;1.83;1.67;;;22.60;99.60;;;;;;5123222;28;20472;-44
2021/09/05 04:22:24;;;;;;;2.03;1.70;;;22.50;99.90;;;;;;5125918;28;20537;-43
2021/09/05 04:24:55;;;;;;;1.67;1.57;;;22.50;99.90;;;;;;5126484;28;20446;-42
2021/09/05 04:27:26;;;;;;;1.70;1.60;;;22.40;99.90;;;;;;5127056;28;20793;-45
2021/09/05 04:29:59;;;;;;;1.77;1.67;;;22.30;99.90;;;;;;5126960;28;20871;-42
2021/09/05 04:32:30;;;;;;;1.70;1.60;;;22.30;99.90;;;;;;5127306;28;20777;-41
2021/09/05 04:35:01;;;;;;;1.60;1.50;;;22.30;99.90;;;;;;5126985;28;20427;-42
2021/09/05 04:37:33;;;;;;;1.80;1.70;;;22.30;99.90;;;;;;5126771;28;20420;-42
2021/09/05 04:40:04;;;;;;;1.63;1.40;;;22.20;99.90;;;;;;5126478;28;20420;-41
2021/09/05 04:42:36;;;;;;;2.10;1.67;;;22.10;99.90;;;;;;5126349;28;20460;-41
2021/09/05 04:45:10;;;;;;;1.60;1.50;;;22.00;99.90;;;;;;5126879;27;20401;-40
2021/09/05 04:47:41;;;;;;;1.27;1.17;;;22.00;99.90;;;;;;5127083;28;20437;-43
2021/09/05 04:50:12;;;;;;;1.97;1.37;;;21.90;99.90;;;;;;5126689;28;20446;-40
2021/09/05 04:52:43;;;;;;;2.73;1.67;;;21.80;99.90;;;;;;5126158;28;20470;-41
2021/09/05 04:55:14;;;;;;;1.20;1.10;;;21.70;99.90;;;;;;5126391;28;20547;-43
2021/09/05 04:57:45;;;;;;;1.50;1.40;;;21.70;99.90;;;;;;5125954;28;20445;-43
2021/09/05 05:00:18;;;;;;;1.20;1.20;;;21.60;99.90;;;;;;5126519;28;20438;-44
2021/09/05 05:02:49;;;;;;;2.10;1.90;;;21.60;99.90;;;;;;5126550;28;21029;-43
2021/09/05 05:05:21;;;;;;;1.83;1.60;;;21.50;99.90;;;;;;5126350;28;20432;-45
2021/09/05 05:07:52;;;;;;;1.40;1.30;;;21.40;99.90;;;;;;5125985;28;20911;-40
2021/09/05 05:10:24;;;;;;;2.73;1.60;;;21.40;99.90;;;;;;5126009;28;20416;-40
2021/09/05 05:12:55;;;;;;;1.60;1.50;;;21.30;99.90;;;;;;5126017;28;20456;-43
2021/09/05 05:15:27;;;;;;;2.07;1.70;;;21.20;99.90;;;;;;5126355;28;20401;-45
2021/09/05 05:17:58;;;;;;;1.50;1.40;;;21.20;99.90;;;;;;5126149;28;20408;-42
2021/09/05 05:20:29;;;;;;;1.27;1.27;;;21.10;99.90;;;;;;5126166;28;20449;-43
2021/09/05 05:23:00;;;;;;;2.60;1.40;;;21.10;99.90;;;;;;5129765;27;20447;-39
2021/09/05 05:25:31;;;;;;;1.57;1.47;;;21.00;99.90;;;;;;5146374;27;20459;-39
2021/09/05 05:28:02;;;;;;;1.50;1.40;;;21.00;99.90;;;;;;5146100;27;20487;-40
2021/09/05 05:30:36;;;;;;;1.73;1.43;;;20.90;99.90;;;;;;5146130;27;20468;-42
2021/09/05 05:33:07;;;;;;;1.30;1.20;;;20.80;99.90;;;;;;5145633;27;20482;-39
2021/09/05 05:35:38;;;;;;;1.50;1.40;;;20.80;99.90;;;;;;5146466;27;20546;-42
2021/09/05 05:38:09;;;;;;;1.53;1.30;;;20.80;99.90;;;;;;5146052;27;20569;-43
2021/09/05 05:40:40;;;;;;;2.30;1.63;;;20.70;99.90;;;;;;5146078;27;20515;-41
2021/09/05 05:43:11;;;;;;;1.77;1.67;;;20.60;99.90;;;;;;5145822;27;21258;-42
2021/09/05 05:45:44;;;;;;;1.90;1.80;;;20.60;99.90;;;;;;5146152;27;20525;-39
2021/09/05 05:48:16;;;;;;;1.50;1.40;;;20.50;99.90;;;;;;5146494;27;20411;-40
2021/09/05 05:50:47;;;;;;;1.67;1.30;;;20.50;99.90;;;;;;5146025;27;20567;-40
2021/09/05 05:53:18;;;;;;;1.60;1.50;;;20.40;99.90;;;;;;5145857;27;20488;-39
2021/09/05 05:55:49;;;;;;;1.53;1.43;;;20.40;99.90;;;;;;5141521;27;20441;-42
2021/09/05 05:58:21;;;;;;;2.00;1.60;;;20.40;99.90;;;;;;5125115;28;20420;-39
2021/09/05 06:01:11;;;;;;;3.97;1.87;;;20.30;99.90;;;;;;5125197;28;20758;-40
2021/09/05 06:03:42;;;;;;;1.87;1.77;;;20.30;99.90;;;;;;5125386;28;20463;-43
2021/09/05 06:06:13;;;;;;;1.70;1.60;;;20.20;99.90;;;;;;5125316;28;20530;-39
2021/09/05 06:08:44;;;;;;;2.37;1.63;;;20.10;99.90;;;;;;5125064;28;20425;-40
2021/09/05 06:11:15;;;;;;;2.10;1.40;;;20.10;99.90;;;;;;5125038;28;20450;-40
2021/09/05 06:13:46;;;;;;;1.77;1.67;;;20.10;99.90;;;;;;5124758;28;20465;-42
2021/09/05 06:16:19;;;;;;;1.97;1.47;;;20.00;99.90;;;;;;5125242;28;20472;-39
2021/09/05 06:18:50;;;;;;;1.80;1.70;;;20.00;99.90;;;;;;5125312;28;20491;-40
2021/09/05 06:21:21;;;;;;;2.20;2.07;;;20.00;99.90;;;;;;5125008;28;20441;-42
2021/09/05 06:23:52;;;;;;;1.60;1.50;;;19.90;99.90;;;;;;5135713;27;20450;-41
2021/09/05 06:26:23;;;;;;;1.67;1.57;;;19.90;99.90;;;;;;5145395;27;20444;-39
2021/09/05 06:28:55;;;;;;;2.13;1.57;;;19.90;99.90;;;;;;5144897;27;20454;-40
2021/09/05 06:31:28;;;;;;;2.10;1.50;;;19.80;99.90;;;;;;5144930;27;20464;-39
2021/09/05 06:33:59;;;;;;;1.90;1.80;;;19.80;99.90;;;;;;5145691;27;20400;-41
2021/09/05 06:36:30;;;;;;;2.23;2.03;;;19.70;99.90;;;;;;5145739;27;20416;-38
2021/09/05 06:39:01;;;;;;;2.50;1.83;;;19.80;99.90;;;;;;5144517;27;20792;-39
2021/09/05 06:41:32;;;;;;;1.77;1.40;;;19.70;99.90;;;;;;5145301;27;20819;-41
2021/09/05 06:44:03;;;;;;;2.40;1.90;;;19.60;99.90;;;;;;5144701;27;20463;-38
2021/09/05 06:46:35;;;;;;;1.83;1.60;;;19.60;99.90;;;;;;5145376;27;20460;-38
2021/09/05 06:49:06;;;;;;;1.50;1.40;;;19.50;99.90;;;;;;5145350;27;20433;-38
2021/09/05 06:51:37;;;;;;;2.10;1.90;;;19.50;99.90;;;;;;5144760;27;20501;-39
2021/09/05 06:54:08;;;;;;;2.53;1.50;;;19.50;99.90;;;;;;5144382;27;20457;-39
2021/09/05 06:56:39;;;;;;;2.10;2.00;;;19.50;99.90;;;;;;5133906;27;20445;-40
2021/09/05 06:59:10;;;;;;;1.70;1.60;;;19.50;99.90;;;;;;5124108;28;21018;-39
2021/09/05 07:01:43;;;;;;;1.43;1.33;;;19.50;99.90;;;;;;5124469;28;20469;-38
2021/09/05 07:04:14;;;;;;;1.70;1.57;;;19.40;99.90;;;;;;5124437;28;20453;-42
2021/09/05 07:06:47;;;;;;;1.63;1.53;;;19.40;99.90;;;;;;5124355;28;20445;-41
2021/09/05 07:09:18;;;;;;;1.33;1.23;;;19.50;99.90;;;;;;5123374;28;20470;-39
2021/09/05 07:11:48;;;;;;;1.80;1.70;;;19.50;99.90;;;;;;5124378;28;20449;-41
2021/09/05 07:14:20;;;;;;;1.70;1.60;;;19.60;99.90;;;;;;5123984;28;20458;-40
2021/09/05 07:16:52;;;;;;;1.63;1.53;;;19.50;99.90;;;;;;5124469;28;20462;-38
2021/09/05 07:19:23;;;;;;;1.50;1.40;;;19.50;99.90;;;;;;5124312;28;20400;-42
2021/09/05 07:21:54;;;;;;;1.43;1.33;;;19.40;99.90;;;;;;5124149;28;20424;-44
2021/09/05 07:24:25;;;;;;;2.03;1.80;;;19.40;99.90;;;;;;5139758;27;20529;-42
2021/09/05 07:26:56;;;;;;;2.00;1.80;;;19.30;99.90;;;;;;5144759;27;20607;-44
2021/09/05 07:29:27;;;;;;;1.50;1.40;;;19.30;99.90;;;;;;5144204;27;20472;-42
2021/09/05 07:31:59;;;;;;;1.70;1.60;;;19.20;99.90;;;;;;5144755;27;20450;-40
2021/09/05 07:34:30;;;;;;;1.80;1.50;;;19.20;99.90;;;;;;5144697;27;20513;-39
2021/09/05 07:37:01;;;;;;;1.87;1.70;;;19.10;99.90;;;;;;5144503;27;20415;-40
2021/09/05 07:39:32;;;;;;;1.53;1.40;;;19.10;99.90;;;;;;5143536;27;20477;-41
2021/09/05 07:42:04;;;;;;;1.70;1.60;;;19.10;99.90;;;;;;5144447;27;20448;-38
2021/09/05 07:44:35;;;;;;;1.60;1.50;;;19.00;99.90;;;;;;5143684;27;20504;-39
2021/09/05 07:47:08;;;;;;;2.73;1.80;;;19.00;99.90;;;;;;5144970;27;20447;-40
2021/09/05 07:49:39;;;;;;;1.70;1.60;;;18.90;99.90;;;;;;5144396;27;20442;-41
2021/09/05 07:52:09;;;;;;;2.40;1.70;;;18.90;99.90;;;;;;5144237;27;20589;-40
2021/09/05 07:54:40;;;;;;;1.97;1.63;;;18.90;99.90;;;;;;5143270;28;20452;-43
2021/09/05 07:57:11;;;;;;;1.80;1.70;;;18.90;99.90;;;;;;5128067;27;20453;-41
2021/09/05 07:59:42;;;;;;;2.33;1.90;;;18.80;99.90;;;;;;5123649;28;20441;-44
2021/09/05 08:02:15;;;;;;;2.97;2.60;;;18.80;99.90;;;;;;5123695;28;20437;-40
2021/09/05 08:04:46;;;;;;;2.60;2.10;;;18.70;99.90;;;;;;5123412;28;20463;-43
2021/09/05 08:07:17;;;;;;;2.00;1.90;;;18.70;99.90;;;;;;5123233;28;20468;-40
2021/09/05 08:09:48;;;;;;;1.80;1.70;;;18.70;99.90;;;;;;5122689;28;20420;-44
2021/09/05 08:12:22;;;;;;;2.30;2.10;;;18.70;99.90;;;;;;5122753;28;20456;-40
2021/09/05 08:14:53;;;;;;;2.50;2.00;;;18.70;99.90;;;;;;5123178;28;20441;-42
2021/09/05 08:17:25;;;;;;;2.53;2.33;;;18.60;99.90;;;;;;5123356;28;20470;-38
2021/09/05 08:19:56;;;;;;;1.90;1.80;;;18.60;99.90;;;;;;5123055;28;20465;-38
2021/09/05 08:22:27;;;;;;;3.70;2.30;;;18.50;99.90;;;;;;5123042;28;20514;-40
2021/09/05 08:24:58;;;;;;;2.93;2.43;;;18.50;99.90;;;;;;5122590;28;20484;-40
2021/09/05 08:27:29;;;;;;;2.20;2.00;;;18.50;99.90;;;;;;5123069;28;20453;-39
2021/09/05 08:30:00;;;;;;;2.30;2.00;;;18.40;99.90;;;;;;5123491;28;20456;-39
2021/09/05 08:32:34;;;;;;;2.73;2.53;;;18.40;99.90;;;;;;5123342;28;20472;-38
2021/09/05 08:35:05;;;;;;;1.77;1.67;;;18.40;99.90;;;;;;5122915;28;20484;-39
2021/09/05 08:37:36;;;;;;;2.53;2.20;;;18.40;99.90;;;;;;5122642;28;20417;-38
2021/09/05 08:40:09;;;;;;;2.73;2.33;;;18.40;99.90;;;;;;5122726;28;20437;-40
2021/09/05 08:42:40;;;;;;;2.73;2.10;;;18.30;99.90;;;;;;5122450;28;20498;-39
2021/09/05 08:45:11;;;;;;;2.10;2.00;;;18.30;99.90;;;;;;5122912;28;20505;-41
2021/09/05 08:47:44;;;;;;;3.00;2.80;;;18.20;99.90;;;;;;5123119;28;20565;-39
2021/09/05 08:50:15;;;;;;;2.33;2.13;;;18.20;99.90;;;;;;5123187;28;20453;-40
2021/09/05 08:52:48;;;;;;;2.73;2.30;;;18.10;99.90;;;;;;5122620;28;20567;-40
2021/09/05 08:55:19;;;;;;;2.70;2.50;;;18.10;99.90;;;;;;5122527;28;20445;-40
2021/09/05 08:57:50;;;;;;;2.43;2.27;;;18.10;99.90;;;;;;5122346;28;20444;-40
2021/09/05 09:00:22;;;;;;;2.70;2.50;;;18.00;99.90;;;;;;5122866;28;20533;-38
2021/09/05 09:02:56;;;;;;;2.30;2.10;;;18.00;99.90;;;;;;5122638;28;20850;-40
2021/09/05 09:05:35;;;;;;;3.50;2.83;;;18.10;99.90;;;;;;5122893;28;20489;-38
2021/09/05 09:08:07;;;;;;;3.17;2.50;;;18.00;99.90;;;;;;5122941;28;20445;-40
2021/09/05 09:10:49;;;;;;;2.50;2.30;;;18.00;99.90;;;;;;5126025;28;20933;-43
2021/09/05 09:13:30;;;;;;;3.27;2.67;;;18.00;99.90;;;;;;5125891;28;20442;-39
2021/09/05 09:16:08;;;;;;;2.40;2.00;;;17.90;99.90;;;;;;5126296;28;20437;-41
2021/09/05 09:18:42;;;;;;;2.93;2.00;;;17.80;99.90;;;;;;5126138;28;20498;-39
2021/09/05 09:21:14;;;;;;;2.43;2.23;;;17.80;99.90;;;;;;5126403;28;20428;-38
2021/09/05 09:23:45;;;;;;;2.60;2.40;;;17.80;99.90;;;;;;5125558;28;20464;-40
2021/09/05 09:26:18;;;;;;;3.00;2.70;;;17.80;99.90;;;;;;5125886;28;20492;-40
2021/09/05 09:28:52;;;;;;;2.37;2.17;;;17.80;99.90;;;;;;5125229;28;20444;-39
2021/09/05 09:31:24;;;;;;;2.30;2.10;;;17.80;99.90;;;;;;5125980;28;20526;-38
2021/09/05 09:33:59;;;;;;;2.07;1.87;;;17.80;99.90;;;;;;5125710;28;20445;-39
2021/09/05 09:36:31;;;;;;;1.80;1.70;;;17.80;99.90;;;;;;5126232;28;20491;-38
2021/09/05 09:39:03;;;;;;;1.70;1.43;;;17.80;99.90;;;;;;5125159;28;20471;-39
2021/09/05 09:41:36;;;;;;;1.73;1.63;;;17.80;99.90;;;;;;5125809;28;20518;-38
2021/09/05 09:44:09;;;;;;;1.70;1.60;;;17.70;99.90;;;;;;5125187;28;20749;-38
2021/09/05 09:46:42;;;;;;;1.70;1.60;;;17.80;99.90;;;;;;5125715;28;20485;-39
2021/09/05 09:49:17;;;;;;;1.77;1.67;;;17.80;99.90;;;;;;5125525;28;20446;-38
2021/09/05 09:52:00;;;;;;;1.70;1.60;;;17.70;99.90;;;;;;5125646;28;20509;-36
2021/09/05 09:54:32;;;;;;;8.10;2.53;;;17.70;99.90;;;;;;5124253;28;20465;-40
2021/09/05 09:57:03;;;;;;;3.17;1.63;;;17.70;99.90;;;;;;5125601;28;20510;-37
2021/09/05 09:59:34;;;;;;;1.60;1.50;;;17.70;99.90;;;;;;5124946;27;20445;-39
2021/09/05 10:02:07;;;;;;;1.97;1.87;;;17.70;99.90;;;;;;5125552;28;20432;-38
2021/09/05 10:04:41;;;;;;;2.00;1.90;;;17.60;99.90;;;;;;5125309;28;20493;-37
2021/09/05 10:07:14;;;;;;;2.00;1.60;;;17.60;99.90;;;;;;5125453;28;20508;-38
2021/09/05 10:09:46;;;;;;;1.90;1.80;;;17.60;99.90;;;;;;5124887;28;20449;-38
2021/09/05 10:12:17;;;;;;;1.97;1.60;;;17.60;99.90;;;;;;5125045;28;20459;-38
2021/09/05 10:14:53;;;;;;;2.03;1.47;;;17.60;99.90;;;;;;5124905;28;20456;-39
2021/09/05 10:17:24;;;;;;;2.33;1.90;;;17.60;99.90;;;;;;5125129;28;20472;-39
2021/09/05 10:19:58;;;;;;;1.60;1.50;;;17.60;99.90;;;;;;5124561;27;20500;-40
2021/09/05 10:22:32;;;;;;;1.70;1.60;;;17.60;99.90;;;;;;5125107;28;20426;-38
2021/09/05 10:25:05;;;;;;;1.83;1.70;;;17.50;99.90;;;;;;5124696;27;20445;-39
2021/09/05 10:27:39;;;;;;;1.87;1.73;;;17.50;99.90;;;;;;5124637;28;20534;-38
2021/09/05 10:30:15;;;;;;;2.00;1.60;;;17.50;99.90;;;;;;5124955;28;20446;-41
2021/09/05 10:33:05;;;;;;;1.97;1.80;;;17.40;99.90;;;;;;5124612;28;20526;-38
2021/09/05 10:35:48;;;;;;;2.00;1.90;;;17.40;99.90;;;;;;5124707;28;20449;-40
2021/09/05 10:38:27;;;;;;;2.37;1.97;;;17.30;99.90;;;;;;5124317;28;20474;-38
2021/09/05 10:41:02;;;;;;;1.80;1.70;;;17.30;99.90;;;;;;5124363;27;20445;-38
2021/09/05 10:44:12;;;;;;;2.27;2.07;;;17.30;99.90;;;;;;5124027;27;20456;-41
2021/09/05 10:46:46;;;;;;;1.70;1.60;;;17.30;99.90;;;;;;5124633;28;20584;-39
2021/09/05 10:49:18;;;;;;;6.90;1.80;;;17.30;99.90;;;;;;5124704;28;20445;-38
2021/09/05 10:51:52;;;;;;;1.70;1.60;;;17.20;99.90;;;;;;5124682;28;20445;-39
2021/09/05 10:54:25;;;;;;;1.57;1.47;;;17.20;99.90;;;;;;5123445;28;20441;-38
2021/09/05 10:56:57;;;;;;;1.87;1.63;;;17.20;99.90;;;;;;5124447;28;20452;-39
2021/09/05 10:59:35;;;;;;;1.87;1.73;;;17.10;99.90;;;;;;5123700;28;20541;-40
2021/09/05 11:02:07;;;;;;;2.83;1.60;;;17.00;99.90;;;;;;5124525;28;20442;-38
2021/09/05 11:04:46;;;;;;;2.23;1.40;;;16.90;99.90;;;;;;5124169;28;20455;-38
2021/09/05 11:07:35;;;;;;;1.60;1.50;;;16.90;99.90;;;;;;5124383;28;20874;-39
2021/09/05 11:10:06;;;;;;;3.20;1.87;;;16.80;99.90;;;;;;5123851;28;20476;-38
2021/09/05 11:12:40;;;;;;;2.00;1.63;;;16.90;99.90;;;;;;5123754;28;20449;-38
2021/09/05 11:15:25;;;;;;;1.80;1.70;;;16.90;99.90;;;;;;5123983;28;20471;-39
2021/09/05 11:17:57;;;;;;;1.60;1.50;;;16.90;99.90;;;;;;5123960;28;20481;-42
2021/09/05 11:20:32;;;;;;;1.83;1.73;;;16.90;99.90;;;;;;5124077;28;20456;-41
2021/09/05 11:23:05;;;;;;;1.80;1.67;;;16.90;99.90;;;;;;5128361;27;20444;-38
2021/09/05 11:25:39;;;;;;;2.23;1.63;;;16.80;99.90;;;;;;5143965;27;20445;-38
2021/09/05 11:28:11;;;;;;;2.30;2.10;;;16.80;99.90;;;;;;5143991;27;20451;-40
2021/09/05 11:31:03;;;;;;;4.47;2.23;;;16.70;99.90;;;;;;5143467;27;20500;-38
2021/09/05 11:33:34;;;;;;;2.43;1.87;;;16.70;99.90;;;;;;5144251;27;20472;-38
2021/09/05 11:36:10;;;;;;;2.10;1.50;;;16.70;99.90;;;;;;5144431;27;20460;-38
2021/09/05 11:38:42;;;;;;;1.70;1.60;;;16.70;99.90;;;;;;5144089;27;20516;-37
2021/09/05 11:41:13;;;;;;;1.97;1.77;;;16.70;99.90;;;;;;5144363;27;20454;-38
2021/09/05 11:43:44;;;;;;;1.60;1.50;;;16.70;99.90;;;;;;5143958;27;20421;-38
2021/09/05 11:46:17;;;;;;;1.97;1.73;;;16.60;99.90;;;;;;5144041;27;20476;-37
2021/09/05 11:48:58;;;;;;;2.60;1.90;;;16.60;99.90;;;;;;5144075;27;20949;-37
2021/09/05 11:51:29;;;;;;;2.30;2.10;;;16.60;99.90;;;;;;5144219;27;20463;-38
2021/09/05 11:54:03;;;;;;;2.47;1.73;;;16.60;99.90;;;;;;5142959;27;20448;-39
2021/09/05 11:56:34;;;;;;;2.63;1.90;;;16.50;99.90;;;;;;5133903;27;20537;-38
2021/09/05 11:59:11;;;;;;;3.23;1.70;;;16.50;99.90;;;;;;5123261;28;20453;-38
2021/09/05 12:01:47;;;;;;;2.20;2.00;;;16.50;99.90;;;;;;5123668;28;20541;-38
2021/09/05 12:04:19;;;;;;;3.87;1.53;;;16.50;99.90;;;;;;5123171;28;20514;-38
2021/09/05 12:06:51;;;;;;;1.60;1.50;;;16.50;99.90;;;;;;5123459;28;20487;-38
2021/09/05 12:09:30;;;;;;;1.70;1.60;;;16.40;99.90;;;;;;5122884;28;20594;-38
2021/09/05 12:12:03;;;;;;;1.63;1.53;;;16.40;99.90;;;;;;5123698;28;21375;-38
2021/09/05 12:14:35;;;;;;;2.63;1.53;;;16.30;99.90;;;;;;5123016;28;20502;-38
2021/09/05 12:17:19;;;;;;;1.80;1.70;;;16.30;99.90;;;;;;5123598;28;20454;-39
2021/09/05 12:20:01;;;;;;;1.63;1.53;;;16.30;99.90;;;;;;5123226;28;20460;-38
2021/09/05 12:22:43;;;;;;;3.10;1.80;;;16.40;99.90;;;;;;5123559;28;20445;-38
2021/09/05 12:25:19;;;;;;;1.77;1.67;;;16.30;99.90;;;;;;5143113;28;20445;-39
2021/09/05 12:28:00;;;;;;;1.80;1.67;;;16.20;99.90;;;;;;5143358;27;20586;-37
2021/09/05 12:30:33;;;;;;;1.60;1.37;;;16.20;99.90;;;;;;5143884;28;20463;-37
2021/09/05 12:33:14;;;;;;;2.00;1.80;;;16.20;99.90;;;;;;5143932;27;20476;-37
2021/09/05 12:35:47;;;;;;;1.97;1.87;;;16.10;99.90;;;;;;5143825;27;20524;-38
2021/09/05 12:38:24;;;;;;;1.90;1.80;;;16.10;99.90;;;;;;5143310;28;20441;-38
2021/09/05 12:41:05;;;;;;;1.63;1.53;;;16.10;99.90;;;;;;5143477;28;20440;-38
2021/09/05 12:43:44;;;;;;;2.57;1.80;;;16.10;99.90;;;;;;5146225;27;20441;-38
2021/09/05 12:46:16;;;;;;;2.30;2.10;;;16.10;99.90;;;;;;5147510;27;20463;-38
2021/09/05 12:48:49;;;;;;;1.83;1.70;;;16.10;99.90;;;;;;5147777;27;20453;-39
2021/09/05 12:51:22;;;;;;;1.77;1.67;;;16.00;99.90;;;;;;5147873;27;20436;-44
2021/09/05 12:54:03;;;;;;;1.50;1.40;;;16.00;99.90;;;;;;5147246;27;20479;-38
2021/09/05 12:56:35;;;;;;;1.80;1.70;;;16.00;99.90;;;;;;5136710;27;20495;-40
2021/09/05 12:59:06;;;;;;;2.00;1.70;;;15.90;99.90;;;;;;5126528;28;20445;-38
2021/09/05 13:01:37;;;;;;;2.43;1.70;;;15.90;99.90;;;;;;5126827;28;20599;-37
2021/09/05 13:04:09;;;;;;;2.13;1.90;;;15.90;99.90;;;;;;5126661;28;20505;-37
2021/09/05 13:06:40;;;;;;;1.90;1.77;;;15.80;99.90;;;;;;5126582;28;20446;-37
2021/09/05 13:09:11;;;;;;;1.60;1.50;;;15.80;99.90;;;;;;5126288;28;20462;-38
2021/09/05 13:11:45;;;;;;;2.27;1.80;;;15.80;99.90;;;;;;5126857;28;20449;-37
2021/09/05 13:14:16;;;;;;;1.60;1.50;;;15.80;99.90;;;;;;5126107;28;20498;-38
2021/09/05 13:16:47;;;;;;;1.83;1.73;;;15.80;99.90;;;;;;5126534;28;20416;-38
2021/09/05 13:19:18;;;;;;;1.70;1.60;;;15.80;99.90;;;;;;5126484;28;20446;-38